createdAt,value
2018-09-08T00:00:32.173Z,99458.30
2018-09-08T00:03:03.770Z,99454.09
2018-09-08T00:05:34.900Z,99451.36
2018-09-08T00:08:05.549Z,99448.73
2018-09-08T00:10:36.104Z,99449.53
2018-09-08T00:13:06.992Z,99447.31
2018-09-08T00:15:42.836Z,99460.20
2018-09-08T00:18:18.348Z,99451.23
2018-09-08T00:20:54.044Z,99455.84
2018-09-08T00:23:29.560Z,99451.02
2018-09-08T00:26:05.142Z,99457.31
2018-09-08T00:28:43.557Z,99449.52
2018-09-08T00:31:17.916Z,99457.55
2018-09-08T00:33:49.004Z,99457.81
2018-09-08T00:36:19.972Z,99456.77
2018-09-08T00:38:50.980Z,99460.63
2018-09-08T00:41:24.389Z,99457.05
2018-09-08T00:43:58.752Z,99461.37
2018-09-08T00:46:34.383Z,99453.35
2018-09-08T00:49:08.164Z,99468.20
2018-09-08T00:51:43.646Z,99462.47
2018-09-08T00:54:17.937Z,99455.27
2018-09-08T00:56:48.684Z,99459.94
2018-09-08T00:59:23.461Z,99466.63
2018-09-08T01:01:56.622Z,99473.69
2018-09-08T01:04:28.051Z,99475.91
2018-09-08T01:06:58.994Z,99466.81
2018-09-08T01:09:29.654Z,99467.73
2018-09-08T01:12:00.290Z,99461.92
2018-09-08T01:14:30.745Z,99461.63
2018-09-08T01:17:01.585Z,99462.51
2018-09-08T01:19:32.528Z,99471.59
2018-09-08T01:22:04.453Z,99477.30
2018-09-08T01:24:34.995Z,99474.09
2018-09-08T01:27:05.824Z,99477.89
2018-09-08T01:29:36.473Z,99485.99
2018-09-08T01:32:07.332Z,99487.98
2018-09-08T01:34:38.049Z,99477.20
2018-09-08T01:37:08.923Z,99480.59
2018-09-08T01:39:39.618Z,99474.23
2018-09-08T01:42:10.337Z,99473.28
2018-09-08T01:44:40.980Z,99474.58
2018-09-08T01:47:11.680Z,99481.06
2018-09-08T01:49:42.287Z,99478.33
2018-09-08T01:52:13.044Z,99478.89
2018-09-08T01:54:43.649Z,99480.88
2018-09-08T01:57:14.288Z,99481.21
2018-09-08T01:59:45.057Z,99484.59
2018-09-08T02:02:16.129Z,99490.94
2018-09-08T02:04:46.816Z,99487.96
2018-09-08T02:07:17.528Z,99492.49
2018-09-08T02:09:47.909Z,99491.22
2018-09-08T02:12:18.826Z,99492.80
2018-09-08T02:14:49.476Z,99499.14
2018-09-08T02:17:20.130Z,99496.24
2018-09-08T02:19:51.385Z,99492.80
2018-09-08T02:22:23.053Z,99492.03
2018-09-08T02:24:54.101Z,99500.30
2018-09-08T02:27:24.848Z,99493.16
2018-09-08T02:29:55.400Z,99498.16
2018-09-08T02:32:26.413Z,99496.02
2018-09-08T02:34:57.901Z,99495.20
2018-09-08T02:37:28.709Z,99492.32
2018-09-08T02:40:01.773Z,99496.23
2018-09-08T02:42:42.718Z,99504.02
2018-09-08T02:45:13.365Z,99504.06
2018-09-08T02:47:44.157Z,99507.77
2018-09-08T02:50:34.881Z,99515.67
2018-09-08T02:53:03.988Z,99503.13
2018-09-08T02:55:32.667Z,99506.58
2018-09-08T02:58:01.041Z,99511.38
2018-09-08T03:00:29.837Z,99511.75
2018-09-08T03:02:58.174Z,99512.55
2018-09-08T03:05:26.381Z,99512.08
2018-09-08T03:07:54.818Z,99508.75
2018-09-08T03:10:23.337Z,99505.94
2018-09-08T03:12:51.747Z,99506.15
2018-09-08T03:15:20.444Z,99506.69
2018-09-08T03:17:48.692Z,99515.83
2018-09-08T03:20:16.857Z,99505.54
2018-09-08T03:22:45.245Z,99507.58
2018-09-08T03:25:13.513Z,99507.06
2018-09-08T03:27:41.685Z,99509.30
2018-09-08T03:30:10.065Z,99506.43
2018-09-08T03:32:38.246Z,99507.55
2018-09-08T03:35:06.592Z,99503.61
2018-09-08T03:37:34.943Z,99505.20
2018-09-08T03:40:03.116Z,99512.30
2018-09-08T03:42:31.187Z,99514.08
2018-09-08T03:44:59.567Z,99515.45
2018-09-08T03:47:27.843Z,99514.07
2018-09-08T03:49:55.988Z,99513.39
2018-09-08T03:52:24.608Z,99519.87
2018-09-08T03:54:52.896Z,99528.56
2018-09-08T03:57:21.048Z,99528.84
2018-09-08T03:59:49.353Z,99528.09
2018-09-08T04:02:17.493Z,99527.49
2018-09-08T04:04:48.016Z,99530.17
2018-09-08T04:07:18.745Z,99530.06
2018-09-08T04:09:49.389Z,99530.50
2018-09-08T04:12:20.173Z,99531.38
2018-09-08T04:14:50.883Z,99533.77
2018-09-08T04:17:21.620Z,99532.38
2018-09-08T04:19:52.292Z,99535.82
2018-09-08T04:22:27.292Z,99536.53
2018-09-08T04:24:57.692Z,99543.41
2018-09-08T04:27:28.385Z,99533.86
2018-09-08T04:29:59.090Z,99531.83
2018-09-08T04:32:30.695Z,99536.95
2018-09-08T04:35:01.358Z,99543.17
2018-09-08T04:37:32.161Z,99542.36
2018-09-08T04:40:02.928Z,99541.85
2018-09-08T04:42:33.761Z,99539.72
2018-09-08T04:45:04.480Z,99547.86
2018-09-08T04:47:35.264Z,99550.50
2018-09-08T04:50:05.860Z,99550.61
2018-09-08T04:52:36.538Z,99549.85
2018-09-08T04:55:07.440Z,99561.20
2018-09-08T04:57:38.156Z,99554.72
2018-09-08T05:00:09.814Z,99557.77
2018-09-08T05:02:40.533Z,99558.26
2018-09-08T05:05:11.434Z,99570.33
2018-09-08T05:07:42.313Z,99568.70
2018-09-08T05:10:12.989Z,99566.48
2018-09-08T05:12:43.422Z,99575.47
2018-09-08T05:15:14.129Z,99572.70
2018-09-08T05:17:44.962Z,99580.69
2018-09-08T05:20:15.693Z,99572.52
2018-09-08T05:22:46.498Z,99579.95
2018-09-08T05:25:17.275Z,99570.86
2018-09-08T05:27:48.037Z,99570.84
2018-09-08T05:30:18.682Z,99569.95
2018-09-08T05:32:49.578Z,99583.28
2018-09-08T05:35:20.250Z,99586.45
2018-09-08T05:37:51.064Z,99586.98
2018-09-08T05:40:21.665Z,99579.60
2018-09-08T05:42:52.524Z,99584.98
2018-09-08T05:45:23.013Z,99586.19
2018-09-08T05:47:54.103Z,99586.30
2018-09-08T05:50:24.758Z,99578.48
2018-09-08T05:52:55.593Z,99575.83
2018-09-08T05:55:26.381Z,99582.72
2018-09-08T05:57:57.197Z,99585.98
2018-09-08T06:00:27.632Z,99585.77
2018-09-08T06:02:58.575Z,99579.20
2018-09-08T06:05:29.204Z,99577.52
2018-09-08T06:07:59.958Z,99587.22
2018-09-08T06:10:30.553Z,99585.89
2018-09-08T06:13:11.584Z,99583.56
2018-09-08T06:15:47.484Z,99587.47
2018-09-08T06:18:17.951Z,99590.02
2018-09-08T06:20:48.485Z,99589.05
2018-09-08T06:23:19.177Z,99592.13
2018-09-08T06:25:49.776Z,99590.00
2018-09-08T06:28:20.623Z,99589.48
2018-09-08T06:30:51.317Z,99594.00
2018-09-08T06:33:22.072Z,99592.08
2018-09-08T06:35:52.769Z,99597.64
2018-09-08T06:38:23.838Z,99590.27
2018-09-08T06:40:54.490Z,99594.25
2018-09-08T06:43:25.289Z,99598.98
2018-09-08T06:45:55.826Z,99598.86
2018-09-08T06:48:26.465Z,99592.42
2018-09-08T06:50:57.025Z,99586.22
2018-09-08T06:53:27.765Z,99589.87
2018-09-08T06:55:58.491Z,99593.28
2018-09-08T06:58:37.709Z,99593.10
2018-09-08T07:01:09.035Z,99584.40
2018-09-08T07:03:39.881Z,99589.24
2018-09-08T07:06:12.562Z,99588.02
2018-09-08T07:08:43.383Z,99588.33
2018-09-08T07:11:14.132Z,99590.42
2018-09-08T07:13:44.857Z,99591.63
2018-09-08T07:16:15.491Z,99589.86
2018-09-08T07:18:52.006Z,99589.95
2018-09-08T07:21:22.637Z,99589.39
2018-09-08T07:23:53.291Z,99583.53
2018-09-08T07:26:23.760Z,99588.38
2018-09-08T07:28:54.622Z,99589.06
2018-09-08T07:31:25.204Z,99588.34
2018-09-08T07:33:55.741Z,99595.08
2018-09-08T07:36:26.417Z,99588.16
2018-09-08T07:38:57.144Z,99589.72
2018-09-08T07:41:27.783Z,99592.94
2018-09-08T07:43:58.604Z,99585.19
2018-09-08T07:46:29.213Z,99583.31
2018-09-08T07:49:00.018Z,99591.18
2018-09-08T07:51:30.624Z,99591.91
2018-09-08T07:54:01.533Z,99583.66
2018-09-08T07:56:32.193Z,99591.25
2018-09-08T07:59:03.016Z,99595.65
2018-09-08T08:01:33.566Z,99590.86
2018-09-08T08:04:04.322Z,99593.67
2018-09-08T08:06:35.254Z,99583.88
2018-09-08T08:09:07.303Z,99585.77
2018-09-08T08:11:37.974Z,99584.84
2018-09-08T08:14:08.772Z,99580.76
2018-09-08T08:16:39.706Z,99578.09
2018-09-08T08:19:10.460Z,99583.73
2018-09-08T08:21:41.112Z,99577.66
2018-09-08T08:24:12.077Z,99571.96
2018-09-08T08:26:42.785Z,99576.45
2018-09-08T08:29:13.653Z,99578.53
2018-09-08T08:31:44.252Z,99587.63
2018-09-08T08:34:14.944Z,99582.89
2018-09-08T08:36:45.832Z,99585.95
2018-09-08T08:39:16.619Z,99587.01
2018-09-08T08:41:47.293Z,99585.31
2018-09-08T08:44:18.430Z,99588.75
2018-09-08T08:46:49.222Z,99579.38
2018-09-08T08:49:20.228Z,99576.36
2018-09-08T08:52:07.069Z,99579.76
2018-09-08T08:54:49.021Z,99581.11
2018-09-08T08:57:19.618Z,99577.55
2018-09-08T08:59:50.374Z,99579.88
2018-09-08T09:02:21.045Z,99575.13
2018-09-08T09:04:51.771Z,99576.95
2018-09-08T09:07:22.336Z,99575.70
2018-09-08T09:09:53.309Z,99572.14
2018-09-08T09:12:24.073Z,99572.07
2018-09-08T09:14:55.019Z,99572.49
2018-09-08T09:17:26.036Z,99570.37
2018-09-08T09:20:13.005Z,99564.23
2018-09-08T09:22:59.544Z,99571.98
2018-09-08T09:25:30.443Z,99570.98
2018-09-08T09:28:01.077Z,99566.12
2018-09-08T09:30:31.907Z,99565.02
2018-09-08T09:33:02.612Z,99561.19
2018-09-08T09:35:33.466Z,99562.08
2018-09-08T09:38:04.140Z,99561.37
2018-09-08T09:40:34.941Z,99557.31
2018-09-08T09:43:05.617Z,99565.97
2018-09-08T09:45:36.705Z,99564.93
2018-09-08T09:48:07.422Z,99559.44
2018-09-08T09:50:39.145Z,99554.39
2018-09-08T09:53:09.848Z,99556.89
2018-09-08T09:55:41.005Z,99559.10
2018-09-08T09:58:13.487Z,99552.79
2018-09-08T10:00:49.233Z,99548.38
2018-09-08T10:03:19.769Z,99551.00
2018-09-08T10:05:50.561Z,99548.42
2018-09-08T10:08:21.477Z,99555.97
2018-09-08T10:10:52.245Z,99550.22
2018-09-08T10:13:22.784Z,99548.91
2018-09-08T10:15:53.447Z,99544.97
2018-09-08T10:18:24.017Z,99546.03
2018-09-08T10:20:54.790Z,99541.70
2018-09-08T10:23:25.813Z,99542.29
2018-09-08T10:25:56.493Z,99538.92
2018-09-08T10:28:27.309Z,99542.31
2018-09-08T10:30:58.084Z,99540.59
2018-09-08T10:33:28.716Z,99539.78
2018-09-08T10:35:59.371Z,99539.52
2018-09-08T10:38:29.999Z,99541.11
2018-09-08T10:41:01.369Z,99537.64
2018-09-08T10:43:36.998Z,99533.35
2018-09-08T10:46:08.118Z,99536.63
2018-09-08T10:48:38.903Z,99535.22
2018-09-08T10:51:56.917Z,99533.93
2018-09-08T10:54:27.560Z,99530.66
2018-09-08T10:56:58.404Z,99528.56
2018-09-08T10:59:29.304Z,99521.36
2018-09-08T11:02:00.422Z,99523.45
2018-09-08T11:04:31.341Z,99526.51
2018-09-08T11:07:02.229Z,99513.66
2018-09-08T11:09:33.233Z,99517.68
2018-09-08T11:12:04.221Z,99518.09
2018-09-08T11:14:35.169Z,99516.33
2018-09-08T11:17:06.121Z,99513.52
2018-09-08T11:19:36.889Z,99509.98
2018-09-08T11:22:07.854Z,99508.64
2018-09-08T11:24:38.733Z,99506.70
2018-09-08T11:27:09.657Z,99498.70
2018-09-08T11:29:40.264Z,99502.03
2018-09-08T11:32:10.963Z,99501.33
2018-09-08T11:34:41.447Z,99490.67
2018-09-08T11:37:12.230Z,99482.30
2018-09-08T11:39:42.919Z,99488.49
2018-09-08T11:42:13.922Z,99484.55
2018-09-08T11:44:44.646Z,99478.25
2018-09-08T11:47:15.660Z,99479.73
2018-09-08T11:49:46.286Z,99472.49
2018-09-08T11:52:17.044Z,99467.67
2018-09-08T11:54:47.613Z,99461.14
2018-09-08T11:57:18.385Z,99463.76
2018-09-08T11:59:48.957Z,99463.09
2018-09-08T12:02:19.769Z,99459.53
2018-09-08T12:04:50.337Z,99457.41
2018-09-08T12:07:21.169Z,99454.27
2018-09-08T12:09:51.805Z,99454.92
2018-09-08T12:12:22.709Z,99453.98
2018-09-08T12:14:53.433Z,99451.53
2018-09-08T12:17:24.076Z,99455.36
2018-09-08T12:19:54.644Z,99449.73
2018-09-08T12:22:25.452Z,99445.04
2018-09-08T12:24:56.157Z,99437.17
2018-09-08T12:27:26.946Z,99444.50
2018-09-08T12:29:57.577Z,99445.68
2018-09-08T12:32:28.174Z,99445.96
2018-09-08T12:34:58.905Z,99440.54
2018-09-08T12:37:29.742Z,99442.88
2018-09-08T12:40:00.405Z,99441.36
2018-09-08T12:42:31.161Z,99447.45
2018-09-08T12:45:01.830Z,99449.93
2018-09-08T12:47:32.618Z,99439.17
2018-09-08T12:50:03.336Z,99435.66
2018-09-08T12:52:34.113Z,99443.47
2018-09-08T12:55:04.733Z,99436.25
2018-09-08T12:57:35.450Z,99438.38
2018-09-08T13:00:06.241Z,99429.81
2018-09-08T13:02:37.084Z,99437.69
2018-09-08T13:05:08.088Z,99432.56
2018-09-08T13:07:39.030Z,99435.27
2018-09-08T13:10:09.828Z,99437.02
2018-09-08T13:12:40.735Z,99441.28
2018-09-08T13:15:11.397Z,99446.00
2018-09-08T13:17:42.173Z,99445.64
2018-09-08T13:20:12.813Z,99446.19
2018-09-08T13:22:43.721Z,99445.44
2018-09-08T13:25:14.328Z,99453.36
2018-09-08T13:27:44.992Z,99454.88
2018-09-08T13:30:15.589Z,99449.27
2018-09-08T13:32:46.478Z,99452.36
2018-09-08T13:35:17.076Z,99455.30
2018-09-08T13:37:48.061Z,99451.09
2018-09-08T13:40:18.835Z,99445.84
2018-09-08T13:42:49.626Z,99440.25
2018-09-08T13:45:21.145Z,99438.48
2018-09-08T13:47:51.782Z,99439.70
2018-09-08T13:50:22.310Z,99439.98
2018-09-08T13:52:53.131Z,99435.36
2018-09-08T13:55:24.553Z,99436.32
2018-09-08T13:57:55.406Z,99433.09
2018-09-08T14:00:25.957Z,99429.58
2018-09-08T14:02:57.019Z,99429.70
2018-09-08T14:05:27.620Z,99430.63
2018-09-08T14:08:00.967Z,99431.02
2018-09-08T14:10:31.868Z,99432.19
2018-09-08T14:13:02.618Z,99437.67
2018-09-08T14:15:33.285Z,99439.67
2018-09-08T14:18:04.042Z,99442.59
2018-09-08T14:20:34.576Z,99443.55
2018-09-08T14:23:05.581Z,99442.94
2018-09-08T14:25:36.216Z,99445.36
2018-09-08T14:28:07.174Z,99452.86
2018-09-08T14:30:37.877Z,99466.51
2018-09-08T14:33:09.033Z,99465.06
2018-09-08T14:35:39.557Z,99468.42
2018-09-08T14:38:10.477Z,99475.56
2018-09-08T14:40:41.137Z,99485.81
2018-09-08T14:43:12.878Z,99485.04
2018-09-08T14:45:43.500Z,99496.73
2018-09-08T14:48:13.937Z,99504.75
2018-09-08T14:50:46.171Z,99500.70
2018-09-08T14:53:17.045Z,99499.25
2018-09-08T14:55:47.741Z,99504.00
2018-09-08T14:58:18.538Z,99496.41
2018-09-08T15:00:49.203Z,99500.94
2018-09-08T15:03:20.178Z,99506.87
2018-09-08T15:05:50.819Z,99503.43
2018-09-08T15:08:21.702Z,99508.24
2018-09-08T15:10:52.308Z,99505.98
2018-09-08T15:13:23.306Z,99507.39
2018-09-08T15:15:54.808Z,99511.59
2018-09-08T15:18:25.841Z,99513.02
2018-09-08T15:20:56.434Z,99512.82
2018-09-08T15:23:27.356Z,99516.95
2018-09-08T15:25:57.857Z,99514.50
2018-09-08T15:28:29.141Z,99513.11
2018-09-08T15:30:59.624Z,99517.41
2018-09-08T15:33:30.245Z,99521.56
2018-09-08T15:36:00.889Z,99533.88
2018-09-08T15:38:31.575Z,99529.92
2018-09-08T15:41:02.322Z,99542.28
2018-09-08T15:43:33.106Z,99541.09
2018-09-08T15:46:03.756Z,99547.98
2018-09-08T15:48:34.509Z,99547.27
2018-09-08T15:51:05.221Z,99549.19
2018-09-08T15:53:36.077Z,99561.15
2018-09-08T15:56:06.693Z,99563.34
2018-09-08T15:58:37.676Z,99573.41
2018-09-08T16:01:08.180Z,99570.78
2018-09-08T16:03:38.870Z,99575.70
2018-09-08T16:06:09.565Z,99578.77
2018-09-08T16:08:40.422Z,99580.73
2018-09-08T16:11:10.908Z,99583.91
2018-09-08T16:13:41.814Z,99586.44
2018-09-08T16:16:12.451Z,99590.41
2018-09-08T16:18:43.317Z,99586.24
2018-09-08T16:21:13.859Z,99584.37
2018-09-08T16:23:44.794Z,99586.12
2018-09-08T16:26:15.487Z,99592.55
2018-09-08T16:28:46.698Z,99597.34
2018-09-08T16:31:17.474Z,99590.67
2018-09-08T16:33:48.341Z,99600.02
2018-09-08T16:36:18.994Z,99596.95
2018-09-08T16:38:49.892Z,99607.00
2018-09-08T16:41:20.666Z,99601.46
2018-09-08T16:43:51.546Z,99599.11
2018-09-08T16:46:22.115Z,99603.08
2018-09-08T16:48:52.892Z,99605.00
2018-09-08T16:51:23.529Z,99611.94
2018-09-08T16:53:54.277Z,99614.13
2018-09-08T16:56:24.928Z,99617.29
2018-09-08T16:58:55.935Z,99625.21
2018-09-08T17:01:26.610Z,99626.46
2018-09-08T17:03:57.625Z,99633.67
2018-09-08T17:06:28.176Z,99637.25
2018-09-08T17:08:58.965Z,99636.84
2018-09-08T17:11:29.645Z,99643.73
2018-09-08T17:14:00.429Z,99646.70
2018-09-08T17:16:31.085Z,99648.81
2018-09-08T17:19:01.862Z,99652.17
2018-09-08T17:21:32.481Z,99653.27
2018-09-08T17:24:04.701Z,99658.99
2018-09-08T17:26:35.283Z,99661.11
2018-09-08T17:29:06.385Z,99667.57
2018-09-08T17:31:37.045Z,99672.03
2018-09-08T17:34:07.821Z,99672.15
2018-09-08T17:36:38.437Z,99682.84
2018-09-08T17:39:13.287Z,99679.27
2018-09-08T17:41:43.761Z,99691.03
2018-09-08T17:44:14.452Z,99688.75
2018-09-08T17:46:44.760Z,99691.56
2018-09-08T17:49:15.668Z,99691.69
2018-09-08T17:51:46.365Z,99695.33
2018-09-08T17:54:17.470Z,99705.16
2018-09-08T17:56:48.238Z,99706.08
2018-09-08T17:59:19.130Z,99704.29
2018-09-08T18:01:49.825Z,99706.89
2018-09-08T18:04:20.457Z,99703.83
2018-09-08T18:06:51.045Z,99702.59
2018-09-08T18:09:22.095Z,99700.25
2018-09-08T18:11:53.037Z,99703.25
2018-09-08T18:14:23.730Z,99706.25
2018-09-08T18:16:54.280Z,99706.22
2018-09-08T18:19:25.251Z,99712.77
2018-09-08T18:21:55.885Z,99711.53
2018-09-08T18:24:26.648Z,99714.91
2018-09-08T18:26:57.276Z,99717.75
2018-09-08T18:29:28.071Z,99721.25
2018-09-08T18:31:58.793Z,99727.11
2018-09-08T18:34:29.618Z,99728.92
2018-09-08T18:37:00.281Z,99731.35
2018-09-08T18:39:30.973Z,99723.28
2018-09-08T18:42:01.650Z,99728.13
2018-09-08T18:44:32.436Z,99732.73
2018-09-08T18:47:03.126Z,99734.72
2018-09-08T18:49:34.058Z,99736.27
2018-09-08T18:52:04.701Z,99741.45
2018-09-08T18:54:35.320Z,99747.11
2018-09-08T18:57:05.995Z,99746.88
2018-09-08T18:59:36.974Z,99746.38
2018-09-08T19:02:07.718Z,99751.88
2018-09-08T19:04:38.505Z,99752.06
2018-09-08T19:07:09.246Z,99746.50
2018-09-08T19:09:40.024Z,99754.00
2018-09-08T19:12:11.025Z,99751.52
2018-09-08T19:14:46.932Z,99746.70
2018-09-08T19:17:17.432Z,99753.78
2018-09-08T19:19:48.296Z,99757.44
2018-09-08T19:22:18.765Z,99759.98
2018-09-08T19:24:49.674Z,99752.99
2018-09-08T19:27:20.374Z,99756.67
2018-09-08T19:29:51.185Z,99760.80
2018-09-08T19:32:21.845Z,99760.84
2018-09-08T19:34:57.505Z,99765.80
2018-09-08T19:37:28.065Z,99775.20
2018-09-08T19:40:01.070Z,99775.61
2018-09-08T19:42:39.413Z,99766.91
2018-09-08T19:45:10.479Z,99770.84
2018-09-08T19:47:46.061Z,99772.25
2018-09-08T19:50:16.789Z,99769.34
2018-09-08T19:52:52.420Z,99768.52
2018-09-08T19:55:24.836Z,99769.73
2018-09-08T19:58:00.778Z,99768.81
2018-09-08T20:00:31.664Z,99764.36
2018-09-08T20:03:02.306Z,99778.55
2018-09-08T20:05:33.022Z,99780.09
2018-09-08T20:08:03.662Z,99782.25
2018-09-08T20:10:34.639Z,99785.43
2018-09-08T20:13:05.599Z,99785.14
2018-09-08T20:15:36.226Z,99784.33
2018-09-08T20:18:06.910Z,99784.82
2018-09-08T20:20:38.253Z,99784.02
2018-09-08T20:23:08.824Z,99793.02
2018-09-08T20:25:40.332Z,99795.83
2018-09-08T20:28:10.789Z,99795.45
2018-09-08T20:30:41.688Z,99795.69
2018-09-08T20:33:12.272Z,99792.17
2018-09-08T20:35:43.190Z,99790.16
2018-09-08T20:38:13.817Z,99787.23
2018-09-08T20:40:44.529Z,99796.42
2018-09-08T20:43:15.264Z,99793.80
2018-09-08T20:45:46.206Z,99795.05
2018-09-08T20:48:16.778Z,99801.49
2018-09-08T20:50:47.768Z,99806.38
2018-09-08T20:53:18.340Z,99808.56
2018-09-08T20:55:49.093Z,99805.81
2018-09-08T20:58:19.766Z,99812.05
2018-09-08T21:00:50.560Z,99812.20
2018-09-08T21:03:21.178Z,99811.24
2018-09-08T21:05:52.157Z,99812.60
2018-09-08T21:08:22.874Z,99816.66
2018-09-08T21:10:53.643Z,99813.71
2018-09-08T21:13:24.326Z,99822.77
2018-09-08T21:15:54.972Z,99824.70
2018-09-08T21:18:25.626Z,99826.49
2018-09-08T21:20:56.290Z,99821.88
2018-09-08T21:23:27.229Z,99820.50
2018-09-08T21:25:58.295Z,99811.67
2018-09-08T21:28:28.980Z,99820.64
2018-09-08T21:30:59.873Z,99814.88
2018-09-08T21:33:30.562Z,99806.33
2018-09-08T21:36:01.221Z,99808.85
2018-09-08T21:38:31.909Z,99809.87
2018-09-08T21:41:02.686Z,99810.61
2018-09-08T21:43:33.325Z,99808.02
2018-09-08T21:46:05.290Z,99815.11
2018-09-08T21:48:35.877Z,99808.09
2018-09-08T21:51:06.969Z,99813.97
2018-09-08T21:53:37.593Z,99808.97
2018-09-08T21:56:08.325Z,99808.18
2018-09-08T21:58:39.100Z,99807.88
2018-09-08T22:01:14.849Z,99804.59
2018-09-08T22:03:45.515Z,99805.35
2018-09-08T22:06:16.360Z,99805.63
2018-09-08T22:08:46.904Z,99814.03
2018-09-08T22:11:17.685Z,99809.63
2018-09-08T22:13:48.278Z,99810.63
2018-09-08T22:16:19.120Z,99814.27
2018-09-08T22:18:49.848Z,99811.06
2018-09-08T22:21:20.825Z,99811.77
2018-09-08T22:23:51.228Z,99814.80
2018-09-08T22:26:21.964Z,99814.48
2018-09-08T22:28:52.576Z,99808.09
2018-09-08T22:31:23.469Z,99806.44
2018-09-08T22:33:53.949Z,99808.80
2018-09-08T22:36:24.733Z,99816.72
2018-09-08T22:38:55.417Z,99812.50
2018-09-08T22:41:25.908Z,99809.45
2018-09-08T22:43:56.561Z,99813.29
2018-09-08T22:46:27.282Z,99808.92
2018-09-08T22:48:57.748Z,99816.66
2018-09-08T22:51:28.651Z,99816.64
2018-09-08T22:53:59.317Z,99811.00
2018-09-08T22:56:29.779Z,99809.77
2018-09-08T22:59:00.417Z,99813.90
2018-09-08T23:01:31.211Z,99811.17
2018-09-08T23:04:01.825Z,99812.02
2018-09-08T23:06:32.589Z,99812.98
2018-09-08T23:09:03.394Z,99817.05
2018-09-08T23:11:34.346Z,99814.91
2018-09-08T23:14:05.003Z,99809.85
2018-09-08T23:16:36.726Z,99811.71
2018-09-08T23:19:07.500Z,99815.63
2018-09-08T23:21:38.220Z,99812.66
2018-09-08T23:24:08.812Z,99802.28
2018-09-08T23:26:39.465Z,99804.79
2018-09-08T23:29:10.094Z,99807.44
2018-09-08T23:31:40.845Z,99814.38
2018-09-08T23:34:11.344Z,99821.58
2018-09-08T23:36:42.050Z,99820.12
2018-09-08T23:39:13.372Z,99816.41
2018-09-08T23:41:44.218Z,99814.41
2018-09-08T23:44:14.665Z,99820.17
2018-09-08T23:46:45.200Z,99821.64
2018-09-08T23:49:15.768Z,99821.28
2018-09-08T23:51:46.690Z,99820.45
2018-09-08T23:54:17.197Z,99819.50
2018-09-08T23:56:48.189Z,99822.78
2018-09-08T23:59:18.712Z,99820.59
